Time;durP1;ratioP1;P1;durP2;ratioP2;P2;SDS_P1;SDS_P2;PMS_P1;PMS_P2;Temp;Humidity;BMP_temperature;BMP_pressure;BME280_temperature;BME280_humidity;BME280_pressure;Samples;Min_cycle;Max_cycle;Signal;HPM_P1;HPM_P2
2021/06/17 00:00:17;;;;;;;;;;;21.20;72.70;;;;;;4999808;28;20398;-70
2021/06/17 00:02:43;;;;;;;;;;;21.30;72.30;;;;;;4998653;28;20013;-71
2021/06/17 00:05:09;;;;;;;;;;;21.20;72.50;;;;;;5024964;28;19945;-70
2021/06/17 00:07:35;;;;;;;;;;;21.30;72.30;;;;;;4999249;28;20383;-70
2021/06/17 00:10:01;;;;;;;;;;;21.20;72.70;;;;;;4998850;28;19965;-71
2021/06/17 00:12:26;;;;;;;;;;;21.10;72.70;;;;;;4995214;28;19933;-70
2021/06/17 00:14:52;;;;;;;;;;;21.10;72.70;;;;;;4998928;28;20376;-70
2021/06/17 00:17:18;;;;;;;;;;;21.10;72.80;;;;;;4995184;28;20009;-70
2021/06/17 00:19:45;;;;;;;;;;;21.00;72.70;;;;;;4997495;28;19997;-70
2021/06/17 00:22:10;;;;;;;;;;;21.00;72.90;;;;;;4994808;28;20055;-70
2021/06/17 00:24:36;;;;;;;;;;;21.00;72.70;;;;;;4995435;28;20024;-71
2021/06/17 00:27:01;;;;;;;;;;;21.00;73.40;;;;;;4996756;28;20811;-70
2021/06/17 00:29:27;;;;;;;;;;;21.00;72.90;;;;;;4999019;28;20406;-70
2021/06/17 00:31:52;;;;;;;;;;;21.00;73.10;;;;;;4997358;28;19918;-70
2021/06/17 00:34:18;;;;;;;;;;;21.00;73.00;;;;;;4998630;28;19936;-70
2021/06/17 00:36:43;;;;;;;;;;;21.00;72.80;;;;;;4997316;28;19948;-70
2021/06/17 00:39:09;;;;;;;;;;;20.90;73.20;;;;;;5000056;28;19913;-70
2021/06/17 00:41:36;;;;;;;;;;;21.00;72.90;;;;;;4999659;28;19914;-70
2021/06/17 00:44:02;;;;;;;;;;;21.00;72.70;;;;;;4998443;28;19922;-71
2021/06/17 00:46:28;;;;;;;;;;;21.00;72.90;;;;;;4998464;28;19940;-70
2021/06/17 00:48:53;;;;;;;;;;;21.00;73.00;;;;;;4996656;28;19921;-70
2021/06/17 00:51:19;;;;;;;;;;;20.90;73.30;;;;;;4998060;28;19964;-70
2021/06/17 00:53:45;;;;;;;;;;;20.90;73.40;;;;;;4996766;28;19922;-70
2021/06/17 00:56:10;;;;;;;;;;;20.80;73.50;;;;;;5014055;28;19920;-71
2021/06/17 00:58:36;;;;;;;;;;;20.80;73.50;;;;;;4998940;28;20015;-70
2021/06/17 01:01:01;;;;;;;;;;;20.80;73.70;;;;;;5000404;28;20073;-71
2021/06/17 01:03:27;;;;;;;;;;;20.70;74.20;;;;;;4998394;28;19941;-70
2021/06/17 01:05:53;;;;;;;;;;;20.70;73.90;;;;;;4996656;28;20673;-71
2021/06/17 01:08:31;;;;;;;;;;;20.70;74.10;;;;;;5000173;28;19917;-70
2021/06/17 01:11:06;;;;;;;;;;;20.70;74.10;;;;;;5000480;28;19913;-70
2021/06/17 01:13:44;;;;;;;;;;;20.60;74.40;;;;;;4997297;28;19961;-70
2021/06/17 01:16:16;;;;;;;;;;;20.60;74.60;;;;;;5020218;28;20248;-70
2021/06/17 01:18:49;;;;;;;;;;;20.60;74.50;;;;;;5016654;28;19924;-68
2021/06/17 01:21:39;;;;;;;;;;;20.60;74.60;;;;;;5012945;28;20467;-70
2021/06/17 01:24:04;;;;;;;;;;;20.50;74.50;;;;;;5017129;28;20057;-70
2021/06/17 01:26:45;;;;;;;;;;;20.60;74.30;;;;;;5018110;28;20135;-70
2021/06/17 01:29:14;;;;;;;;;;;20.50;74.70;;;;;;5016723;28;19952;-70
2021/06/17 01:31:41;;;;;;;;;;;20.50;74.90;;;;;;5023353;28;20002;-70
2021/06/17 01:34:06;;;;;;;;;;;20.50;74.80;;;;;;5021996;28;20123;-70
2021/06/17 01:36:35;;;;;;;;;;;20.50;74.70;;;;;;5038350;28;19913;-71
2021/06/17 01:39:03;;;;;;;;;;;20.50;74.70;;;;;;5024497;28;19920;-70
2021/06/17 01:41:30;;;;;;;;;;;20.40;74.80;;;;;;5025282;28;19982;-70
2021/06/17 01:43:57;;;;;;;;;;;20.40;74.80;;;;;;5016084;28;19924;-71
2021/06/17 01:46:23;;;;;;;;;;;20.30;75.00;;;;;;5025571;28;19917;-70
2021/06/17 01:48:51;;;;;;;;;;;20.30;75.20;;;;;;5023721;28;19982;-70
2021/06/17 01:51:20;;;;;;;;;;;20.30;75.40;;;;;;5022107;28;20054;-70
2021/06/17 01:53:46;;;;;;;;;;;20.30;75.10;;;;;;5020631;28;20011;-70
2021/06/17 01:56:12;;;;;;;;;;;20.30;75.00;;;;;;5024490;28;19917;-70
2021/06/17 01:58:37;;;;;;;;;;;20.20;75.40;;;;;;5023437;28;19920;-70
2021/06/17 02:01:04;;;;;;;;;;;20.20;75.40;;;;;;5036999;28;20291;-70
2021/06/17 02:03:31;;;;;;;;;;;20.10;75.90;;;;;;5039023;28;19932;-70
2021/06/17 02:05:56;;;;;;;;;;;20.10;75.80;;;;;;5025296;28;20324;-70
2021/06/17 02:08:23;;;;;;;;;;;20.00;75.80;;;;;;5022079;28;19940;-70
2021/06/17 02:10:49;;;;;;;;;;;20.00;75.80;;;;;;5023482;28;20698;-70
2021/06/17 02:13:16;;;;;;;;;;;20.00;75.80;;;;;;5019007;28;19931;-69
2021/06/17 02:15:42;;;;;;;;;;;20.00;75.60;;;;;;5024833;28;19921;-70
2021/06/17 02:18:08;;;;;;;;;;;20.00;76.00;;;;;;5023566;28;19917;-70
2021/06/17 02:20:34;;;;;;;;;;;20.00;75.80;;;;;;5022902;28;20379;-70
2021/06/17 02:23:04;;;;;;;;;;;19.90;76.20;;;;;;5018710;28;19988;-70
2021/06/17 02:25:30;;;;;;;;;;;19.80;76.40;;;;;;5021000;28;20172;-70
2021/06/17 02:28:01;;;;;;;;;;;19.80;76.40;;;;;;5020723;28;19921;-70
2021/06/17 02:30:28;;;;;;;;;;;19.70;76.70;;;;;;5018851;28;19913;-70
2021/06/17 02:32:56;;;;;;;;;;;19.80;76.50;;;;;;5022261;28;19944;-70
2021/06/17 02:35:22;;;;;;;;;;;19.70;76.60;;;;;;5024268;28;19998;-70
2021/06/17 02:37:50;;;;;;;;;;;19.80;76.40;;;;;;5022569;28;20018;-70
2021/06/17 02:40:17;;;;;;;;;;;19.70;76.40;;;;;;5023927;28;19914;-70
2021/06/17 02:42:43;;;;;;;;;;;19.80;76.20;;;;;;5021953;28;20052;-70
2021/06/17 02:45:09;;;;;;;;;;;19.80;75.80;;;;;;5022541;28;20047;-70
2021/06/17 02:47:35;;;;;;;;;;;19.80;76.00;;;;;;5022092;28;19929;-70
2021/06/17 02:50:00;;;;;;;;;;;19.90;75.60;;;;;;5023600;28;20359;-70
2021/06/17 02:52:26;;;;;;;;;;;19.90;75.50;;;;;;5020078;28;19995;-70
2021/06/17 02:54:51;;;;;;;;;;;19.90;75.20;;;;;;5023297;28;20012;-70
2021/06/17 02:57:24;;;;;;;;;;;20.00;75.00;;;;;;5022748;28;20268;-70
2021/06/17 03:00:03;;;;;;;;;;;20.00;74.90;;;;;;5021936;28;20252;-70
2021/06/17 03:02:36;;;;;;;;;;;19.90;75.50;;;;;;5022724;28;20400;-70
2021/06/17 03:05:12;;;;;;;;;;;19.90;75.30;;;;;;5022115;28;19974;-70
2021/06/17 03:07:41;;;;;;;;;;;19.90;75.00;;;;;;5021674;28;20399;-71
2021/06/17 03:10:08;;;;;;;;;;;19.90;75.10;;;;;;5023453;28;19924;-70
2021/06/17 03:12:34;;;;;;;;;;;20.00;74.90;;;;;;5019462;28;19921;-71
2021/06/17 03:15:03;;;;;;;;;;;19.90;75.00;;;;;;5021342;28;19917;-70
2021/06/17 03:17:30;;;;;;;;;;;19.90;75.20;;;;;;5020897;28;20023;-70
2021/06/17 03:19:56;;;;;;;;;;;19.80;75.60;;;;;;5020259;28;19940;-71
2021/06/17 03:22:23;;;;;;;;;;;19.70;75.70;;;;;;5015904;28;20380;-70
2021/06/17 03:24:49;;;;;;;;;;;19.70;76.20;;;;;;5020641;28;20426;-71
2021/06/17 03:27:15;;;;;;;;;;;19.60;76.60;;;;;;5020878;28;19930;-70
2021/06/17 03:29:48;;;;;;;;;;;19.60;76.10;;;;;;5023586;28;20051;-70
2021/06/17 03:32:15;;;;;;;;;;;19.70;76.40;;;;;;5020201;28;19974;-70
2021/06/17 03:34:42;;;;;;;;;;;19.60;75.90;;;;;;5022085;28;19924;-70
2021/06/17 03:37:08;;;;;;;;;;;19.70;76.20;;;;;;5020873;28;19959;-70
2021/06/17 03:39:33;;;;;;;;;;;19.60;76.20;;;;;;5022895;28;20328;-71
2021/06/17 03:42:00;;;;;;;;;;;19.60;76.40;;;;;;5021073;28;19967;-70
2021/06/17 03:44:27;;;;;;;;;;;19.60;76.40;;;;;;5022697;28;20336;-70
2021/06/17 03:46:54;;;;;;;;;;;19.70;76.30;;;;;;5021585;28;20031;-70
2021/06/17 03:49:21;;;;;;;;;;;19.60;76.80;;;;;;5022462;28;20272;-70
2021/06/17 03:51:47;;;;;;;;;;;19.60;76.80;;;;;;5019689;28;19913;-71
2021/06/17 03:54:23;;;;;;;;;;;19.60;76.60;;;;;;5020846;28;19999;-70
2021/06/17 03:56:59;;;;;;;;;;;19.70;76.50;;;;;;5018959;28;19956;-70
2021/06/17 03:59:26;;;;;;;;;;;19.70;76.20;;;;;;5021315;28;19920;-71
2021/06/17 04:01:52;;;;;;;;;;;19.70;76.70;;;;;;5019565;28;20054;-71
2021/06/17 04:04:18;;;;;;;;;;;19.70;76.60;;;;;;5021732;28;19921;-70
2021/06/17 04:06:48;;;;;;;;;;;19.70;76.80;;;;;;5020594;28;19995;-71
2021/06/17 04:09:14;;;;;;;;;;;19.70;76.60;;;;;;5021110;28;19983;-71
2021/06/17 04:11:41;;;;;;;;;;;19.70;76.40;;;;;;5015825;28;19953;-71
2021/06/17 04:14:06;;;;;;;;;;;19.70;76.40;;;;;;5018961;28;19952;-71
2021/06/17 04:16:33;;;;;;;;;;;19.70;76.40;;;;;;5020257;28;19925;-70
2021/06/17 04:18:59;;;;;;;;;;;19.70;76.70;;;;;;5020144;28;19920;-72
2021/06/17 04:21:25;;;;;;;;;;;19.70;76.70;;;;;;5017953;28;20004;-63
2021/06/17 04:23:52;;;;;;;;;;;19.80;76.50;;;;;;5022228;28;20306;-63
2021/06/17 04:26:22;;;;;;;;;;;19.80;76.40;;;;;;5019950;28;20112;-63
2021/06/17 04:28:49;;;;;;;;;;;19.80;76.40;;;;;;5019147;28;20147;-63
2021/06/17 04:31:15;;;;;;;;;;;19.90;76.40;;;;;;5020026;28;19991;-65
2021/06/17 04:33:42;;;;;;;;;;;19.90;76.40;;;;;;5021733;28;20374;-65
2021/06/17 04:36:08;;;;;;;;;;;19.90;76.40;;;;;;5021740;28;20367;-65
2021/06/17 04:38:34;;;;;;;;;;;20.00;76.70;;;;;;5021565;28;19932;-65
2021/06/17 04:41:00;;;;;;;;;;;20.00;76.10;;;;;;5019907;28;20287;-64
2021/06/17 04:43:25;;;;;;;;;;;20.00;76.40;;;;;;5016846;28;19920;-66
2021/06/17 04:45:52;;;;;;;;;;;20.00;76.30;;;;;;5020319;28;19972;-65
2021/06/17 04:48:18;;;;;;;;;;;20.20;75.30;;;;;;5017896;28;19975;-65
2021/06/17 04:50:44;;;;;;;;;;;20.20;75.80;;;;;;5020222;28;19913;-65
2021/06/17 04:53:17;;;;;;;;;;;20.20;76.30;;;;;;5017895;28;19917;-65
2021/06/17 04:55:47;;;;;;;;;;;20.30;75.40;;;;;;5016980;28;19924;-65
2021/06/17 04:58:13;;;;;;;;;;;20.40;75.50;;;;;;5015091;28;19989;-65
2021/06/17 05:00:38;;;;;;;;;;;20.40;76.20;;;;;;5019419;28;19954;-65
2021/06/17 05:03:04;;;;;;;;;;;20.50;74.90;;;;;;5020962;28;19916;-66
2021/06/17 05:05:30;;;;;;;;;;;20.60;75.40;;;;;;5022699;28;19993;-65
2021/06/17 05:10:49;;;;;;;;;;;20.70;75.00;;;;;;5019712;28;20279;-65
2021/06/17 05:13:35;;;;;;;;;;;20.80;75.40;;;;;;5020971;28;19960;-65
2021/06/17 05:16:01;;;;;;;;;;;20.80;75.20;;;;;;5015037;28;20293;-65
2021/06/17 05:18:28;;;;;;;;;;;20.90;74.90;;;;;;5016318;28;19913;-65
2021/06/17 05:20:54;;;;;;;;;;;21.00;74.80;;;;;;5016528;28;19951;-65
2021/06/17 05:23:23;;;;;;;;;;;21.10;74.90;;;;;;5018999;28;19963;-65
2021/06/17 05:25:53;;;;;;;;;;;21.20;74.40;;;;;;5014013;28;20299;-65
2021/06/17 05:28:21;;;;;;;;;;;21.30;74.20;;;;;;5019132;28;20024;-66
2021/06/17 05:30:48;;;;;;;;;;;21.50;74.70;;;;;;5019665;28;20272;-65
2021/06/17 05:33:13;;;;;;;;;;;21.60;73.20;;;;;;5020889;28;19999;-65
2021/06/17 05:35:39;;;;;;;;;;;21.80;72.50;;;;;;5020894;28;19913;-65
2021/06/17 05:38:05;;;;;;;;;;;22.00;71.60;;;;;;5019627;28;19939;-65
2021/06/17 05:40:31;;;;;;;;;;;22.00;72.70;;;;;;5021225;28;19917;-65
2021/06/17 05:42:56;;;;;;;;;;;22.20;71.70;;;;;;5020388;28;19993;-65
2021/06/17 05:45:22;;;;;;;;;;;22.30;70.70;;;;;;5022740;28;19913;-65
2021/06/17 05:47:48;;;;;;;;;;;22.50;70.20;;;;;;5021388;28;20045;-65
2021/06/17 05:50:13;;;;;;;;;;;22.50;70.40;;;;;;5021649;28;19953;-65
2021/06/17 05:52:39;;;;;;;;;;;22.60;70.60;;;;;;5017617;28;19924;-65
2021/06/17 05:55:04;;;;;;;;;;;22.70;69.90;;;;;;5019356;28;20185;-65
2021/06/17 05:57:30;;;;;;;;;;;22.70;69.80;;;;;;5019243;28;19913;-65
2021/06/17 05:59:55;;;;;;;;;;;22.90;69.30;;;;;;5020409;28;19962;-65
2021/06/17 06:02:24;;;;;;;;;;;23.00;69.30;;;;;;5020009;28;19928;-66
2021/06/17 06:04:50;;;;;;;;;;;23.00;68.30;;;;;;5021379;28;19936;-65
2021/06/17 06:07:16;;;;;;;;;;;23.10;67.80;;;;;;5020726;28;19913;-65
2021/06/17 06:09:41;;;;;;;;;;;23.20;68.70;;;;;;5021236;28;19964;-65
2021/06/17 06:12:10;;;;;;;;;;;23.30;67.50;;;;;;5019585;28;20015;-65
2021/06/17 06:14:35;;;;;;;;;;;23.40;67.60;;;;;;5019772;28;20172;-65
2021/06/17 06:17:01;;;;;;;;;;;23.50;67.90;;;;;;5018726;28;19932;-65
2021/06/17 06:19:28;;;;;;;;;;;23.50;67.40;;;;;;5021098;28;19920;-65
2021/06/17 06:21:54;;;;;;;;;;;23.60;67.40;;;;;;5021903;28;20327;-65
2021/06/17 06:24:19;;;;;;;;;;;23.80;66.90;;;;;;5022735;28;19992;-65
2021/06/17 06:26:45;;;;;;;;;;;23.90;67.20;;;;;;5023336;28;19913;-65
2021/06/17 06:29:10;;;;;;;;;;;23.90;67.10;;;;;;5022747;28;20264;-65
2021/06/17 06:31:37;;;;;;;;;;;24.00;66.40;;;;;;5021588;28;20163;-65
2021/06/17 06:34:02;;;;;;;;;;;24.30;66.20;;;;;;5022749;28;20151;-65
2021/06/17 06:36:28;;;;;;;;;;;24.40;64.30;;;;;;5023599;28;19917;-65
2021/06/17 06:38:53;;;;;;;;;;;24.40;65.10;;;;;;5023013;28;19940;-66
2021/06/17 06:41:19;;;;;;;;;;;24.50;65.40;;;;;;5020221;28;20058;-65
2021/06/17 06:43:44;;;;;;;;;;;24.60;64.10;;;;;;5020227;28;19917;-65
2021/06/17 06:46:10;;;;;;;;;;;24.50;64.40;;;;;;5018136;28;19940;-65
2021/06/17 06:48:35;;;;;;;;;;;24.80;66.10;;;;;;5020868;28;20510;-65
2021/06/17 06:51:01;;;;;;;;;;;25.20;65.50;;;;;;5024308;28;20218;-65
2021/06/17 06:53:27;;;;;;;;;;;25.30;63.50;;;;;;5020802;28;19925;-65
2021/06/17 06:55:52;;;;;;;;;;;25.40;64.00;;;;;;5021861;28;19924;-65
2021/06/17 06:58:18;;;;;;;;;;;25.50;63.00;;;;;;5022326;28;19936;-65
2021/06/17 07:00:43;;;;;;;;;;;25.50;62.40;;;;;;5024361;28;20068;-65
2021/06/17 07:03:12;;;;;;;;;;;25.60;62.60;;;;;;5015096;28;19978;-65
2021/06/17 07:05:37;;;;;;;;;;;25.90;61.80;;;;;;5021867;28;20332;-65
2021/06/17 07:08:09;;;;;;;;;;;25.90;61.50;;;;;;5022105;28;20050;-65
2021/06/17 07:10:35;;;;;;;;;;;26.10;62.60;;;;;;5022041;28;20351;-66
2021/06/17 07:13:00;;;;;;;;;;;26.30;59.80;;;;;;5019709;28;19987;-66
2021/06/17 07:15:26;;;;;;;;;;;26.50;60.40;;;;;;5020862;28;19923;-65
2021/06/17 07:17:51;;;;;;;;;;;26.60;60.00;;;;;;5020274;28;19913;-66
2021/06/17 07:20:17;;;;;;;;;;;26.80;59.70;;;;;;5020642;28;19929;-66
2021/06/17 07:22:42;;;;;;;;;;;26.90;58.70;;;;;;5019347;28;19940;-68
2021/06/17 07:25:08;;;;;;;;;;;26.90;59.30;;;;;;5020646;28;19917;-65
2021/06/17 07:27:34;;;;;;;;;;;27.10;59.00;;;;;;5018940;28;19952;-66
2021/06/17 07:30:00;;;;;;;;;;;27.40;59.30;;;;;;5026383;28;19913;-65
2021/06/17 07:32:25;;;;;;;;;;;27.50;59.00;;;;;;5013948;28;19921;-65
2021/06/17 07:34:50;;;;;;;;;;;27.60;58.30;;;;;;5020458;28;19928;-66
2021/06/17 07:37:16;;;;;;;;;;;27.70;57.00;;;;;;5019802;28;19927;-66
2021/06/17 07:39:42;;;;;;;;;;;27.70;57.30;;;;;;5021488;28;19913;-65
2021/06/17 07:42:09;;;;;;;;;;;28.00;56.80;;;;;;5020584;28;20240;-65
2021/06/17 07:44:35;;;;;;;;;;;28.10;57.50;;;;;;5017425;28;20204;-65
2021/06/17 07:47:00;;;;;;;;;;;28.00;56.00;;;;;;5019832;28;20331;-65
2021/06/17 07:49:26;;;;;;;;;;;28.10;56.60;;;;;;5018411;28;19945;-65
2021/06/17 07:51:51;;;;;;;;;;;28.30;56.10;;;;;;5021941;28;19996;-65
2021/06/17 07:54:18;;;;;;;;;;;28.20;57.00;;;;;;5019316;28;20384;-65
2021/06/17 07:56:44;;;;;;;;;;;28.10;57.10;;;;;;5022269;28;20285;-64
2021/06/17 07:59:10;;;;;;;;;;;28.60;57.00;;;;;;5016242;28;19913;-66
2021/06/17 08:01:35;;;;;;;;;;;28.90;55.30;;;;;;5021055;28;19944;-65
2021/06/17 08:04:06;;;;;;;;;;;29.00;54.60;;;;;;5017137;28;19979;-65
2021/06/17 08:06:32;;;;;;;;;;;29.00;54.30;;;;;;5016900;28;19916;-65
2021/06/17 08:09:00;;;;;;;;;;;29.50;53.50;;;;;;5016003;28;19925;-66
2021/06/17 08:11:25;;;;;;;;;;;29.30;54.80;;;;;;5017595;28;19942;-65
2021/06/17 08:13:51;;;;;;;;;;;29.50;51.90;;;;;;5018449;28;19970;-65
2021/06/17 08:16:16;;;;;;;;;;;29.70;53.00;;;;;;5022131;28;20008;-66
2021/06/17 08:18:42;;;;;;;;;;;30.10;51.30;;;;;;5016273;28;19925;-63
2021/06/17 08:21:07;;;;;;;;;;;30.20;53.20;;;;;;5015310;28;19913;-65
2021/06/17 08:23:33;;;;;;;;;;;30.10;50.70;;;;;;5020184;28;19999;-68
2021/06/17 08:25:59;;;;;;;;;;;29.90;50.00;;;;;;5019186;28;20016;-65
2021/06/17 08:28:26;;;;;;;;;;;29.70;49.80;;;;;;5016754;28;20034;-64
2021/06/17 08:30:52;;;;;;;;;;;29.80;52.20;;;;;;5032007;28;19997;-64
2021/06/17 08:33:18;;;;;;;;;;;30.40;51.40;;;;;;5019674;28;20063;-64
2021/06/17 08:35:45;;;;;;;;;;;30.40;49.20;;;;;;5019479;28;19913;-65
2021/06/17 08:38:10;;;;;;;;;;;31.00;47.10;;;;;;5017416;28;19921;-63
2021/06/17 08:40:36;;;;;;;;;;;30.50;49.20;;;;;;5014930;28;20458;-65
2021/06/17 08:43:03;;;;;;;;;;;30.90;49.90;;;;;;5019442;28;20015;-66
2021/06/17 08:45:28;;;;;;;;;;;31.20;50.00;;;;;;5021080;28;19920;-64
2021/06/17 08:47:54;;;;;;;;;;;31.10;44.20;;;;;;5021692;28;19913;-66
2021/06/17 08:50:20;;;;;;;;;;;31.40;44.90;;;;;;5021351;28;20360;-66
2021/06/17 08:52:46;;;;;;;;;;;30.70;45.90;;;;;;5013543;28;19928;-65
2021/06/17 08:55:19;;;;;;;;;;;31.00;46.90;;;;;;5018091;28;20363;-65
2021/06/17 08:57:47;;;;;;;;;;;30.70;45.40;;;;;;5010080;28;20330;-64
2021/06/17 09:00:15;;;;;;;;;;;31.00;46.90;;;;;;5016129;28;19913;-65
2021/06/17 09:02:41;;;;;;;;;;;31.40;46.80;;;;;;5018838;28;21470;-64
2021/06/17 09:05:13;;;;;;;;;;;31.30;44.70;;;;;;5021781;28;19920;-63
2021/06/17 09:07:41;;;;;;;;;;;30.90;44.60;;;;;;5018561;28;19948;-64
2021/06/17 09:10:07;;;;;;;;;;;31.20;43.90;;;;;;5020636;28;19957;-65
2021/06/17 09:12:41;;;;;;;;;;;31.70;46.10;;;;;;5015640;28;19948;-64
2021/06/17 09:15:07;;;;;;;;;;;31.50;44.00;;;;;;5017928;28;19935;-63
2021/06/17 09:17:32;;;;;;;;;;;31.80;45.10;;;;;;5014252;28;20340;-65
2021/06/17 09:19:59;;;;;;;;;;;31.70;43.80;;;;;;5017922;28;20433;-64
2021/06/17 09:22:26;;;;;;;;;;;32.20;42.50;;;;;;5014660;28;20013;-65
2021/06/17 09:24:53;;;;;;;;;;;32.30;40.90;;;;;;5020377;28;19928;-64
2021/06/17 09:27:18;;;;;;;;;;;32.40;38.80;;;;;;5014379;28;19913;-63
2021/06/17 09:29:44;;;;;;;;;;;31.80;43.50;;;;;;5019460;28;20214;-66
2021/06/17 09:32:20;;;;;;;;;;;31.80;41.60;;;;;;5018135;28;19921;-64
2021/06/17 09:34:46;;;;;;;;;;;32.30;40.00;;;;;;5019760;28;19956;-65
2021/06/17 09:37:30;;;;;;;;;;;32.80;42.50;;;;;;5018739;28;19923;-66
2021/06/17 09:39:56;;;;;;;;;;;32.40;40.70;;;;;;5019965;28;20427;-65
2021/06/17 09:42:27;;;;;;;;;;;32.30;41.30;;;;;;5018997;28;20039;-65
2021/06/17 09:44:52;;;;;;;;;;;32.70;40.60;;;;;;5022091;28;19932;-66
2021/06/17 09:47:18;;;;;;;;;;;32.70;40.60;;;;;;5017799;28;19913;-66
2021/06/17 09:49:45;;;;;;;;;;;33.10;41.00;;;;;;5019678;28;19921;-66
2021/06/17 09:52:11;;;;;;;;;;;32.80;38.50;;;;;;5021340;28;20268;-65
2021/06/17 09:54:42;;;;;;;;;;;32.90;37.20;;;;;;5024666;28;20332;-66
2021/06/17 09:57:09;;;;;;;;;;;33.00;35.60;;;;;;5022821;28;20000;-66
2021/06/17 09:59:37;;;;;;;;;;;32.90;38.50;;;;;;5018553;28;19913;-64
2021/06/17 10:02:04;;;;;;;;;;;33.20;39.50;;;;;;5019683;28;20263;-66
2021/06/17 10:04:29;;;;;;;;;;;33.20;36.50;;;;;;5023923;28;20242;-66
2021/06/17 10:06:55;;;;;;;;;;;33.70;39.80;;;;;;5022878;28;19931;-65
2021/06/17 10:09:21;;;;;;;;;;;33.60;35.60;;;;;;5023515;28;19936;-64
2021/06/17 10:11:47;;;;;;;;;;;33.50;36.30;;;;;;5010353;28;19925;-65
2021/06/17 10:14:12;;;;;;;;;;;33.10;34.50;;;;;;5022491;28;19987;-66
2021/06/17 10:16:40;;;;;;;;;;;33.60;34.20;;;;;;5023316;28;19913;-65
2021/06/17 10:19:06;;;;;;;;;;;33.90;37.50;;;;;;5019342;28;20079;-64
2021/06/17 10:21:32;;;;;;;;;;;34.40;33.80;;;;;;5018722;28;20011;-64
2021/06/17 10:24:01;;;;;;;;;;;34.00;33.70;;;;;;5030161;28;19924;-64
2021/06/17 10:26:30;;;;;;;;;;;34.00;34.70;;;;;;5019895;28;19917;-65
2021/06/17 10:28:56;;;;;;;;;;;34.40;33.50;;;;;;5023197;28;19969;-64
2021/06/17 10:31:38;;;;;;;;;;;34.40;34.00;;;;;;5024579;28;20285;-65
2021/06/17 10:34:22;;;;;;;;;;;34.30;35.70;;;;;;5025319;28;19944;-64
2021/06/17 10:37:06;;;;;;;;;;;33.80;35.20;;;;;;5025802;28;19917;-66
2021/06/17 10:39:39;;;;;;;;;;;34.10;32.90;;;;;;5022438;28;19913;-65
2021/06/17 10:42:06;;;;;;;;;;;34.70;31.90;;;;;;5022811;28;19921;-65
2021/06/17 10:44:51;;;;;;;;;;;34.50;33.20;;;;;;5020627;28;20020;-65
2021/06/17 10:47:35;;;;;;;;;;;34.70;31.90;;;;;;5023673;28;20352;-64
2021/06/17 10:50:01;;;;;;;;;;;34.20;32.40;;;;;;5017124;28;20064;-66
2021/06/17 10:52:30;;;;;;;;;;;34.40;32.10;;;;;;5021256;28;20000;-65
2021/06/17 10:55:00;;;;;;;;;;;34.40;32.40;;;;;;5022521;28;20399;-65
2021/06/17 10:57:48;;;;;;;;;;;34.10;31.90;;;;;;5020211;28;19913;-65
2021/06/17 11:00:23;;;;;;;;;;;34.90;32.40;;;;;;5019268;28;20024;-65
2021/06/17 11:02:53;;;;;;;;;;;35.20;31.10;;;;;;5021176;28;20078;-65
2021/06/17 11:05:31;;;;;;;;;;;35.00;33.10;;;;;;5024523;28;19932;-65
2021/06/17 11:08:15;;;;;;;;;;;34.90;33.60;;;;;;5021214;28;19913;-65
2021/06/17 11:10:46;;;;;;;;;;;35.10;33.30;;;;;;5022470;28;20026;-65
2021/06/17 11:13:30;;;;;;;;;;;35.00;33.10;;;;;;5015839;28;20598;-66
2021/06/17 11:15:57;;;;;;;;;;;34.90;31.50;;;;;;5021247;28;19932;-65
2021/06/17 11:18:41;;;;;;;;;;;34.60;32.60;;;;;;5019502;28;20076;-65
2021/06/17 11:21:27;;;;;;;;;;;35.30;34.00;;;;;;5020074;28;19928;-66
2021/06/17 11:23:56;;;;;;;;;;;35.30;31.10;;;;;;5026183;28;20469;-65
2021/06/17 11:26:41;;;;;;;;;;;35.40;33.10;;;;;;5021219;28;20008;-64
2021/06/17 11:29:08;;;;;;;;;;;35.20;32.60;;;;;;5017661;28;19990;-65
2021/06/17 11:31:38;;;;;;;;;;;35.40;32.30;;;;;;5021189;28;20344;-65
2021/06/17 11:34:04;;;;;;;;;;;35.10;32.20;;;;;;5023457;28;20372;-64
2021/06/17 11:36:30;;;;;;;;;;;35.40;31.40;;;;;;5021365;28;19983;-64
2021/06/17 11:39:01;;;;;;;;;;;35.10;31.80;;;;;;5020181;28;20676;-65
2021/06/17 11:41:29;;;;;;;;;;;34.90;31.20;;;;;;5018868;28;20358;-64
2021/06/17 11:44:05;;;;;;;;;;;35.70;32.90;;;;;;5021616;28;20357;-65
2021/06/17 11:46:32;;;;;;;;;;;35.80;30.50;;;;;;5021476;28;20020;-65
2021/06/17 11:48:59;;;;;;;;;;;35.70;31.30;;;;;;5021972;28;19960;-64
2021/06/17 11:51:25;;;;;;;;;;;35.50;31.20;;;;;;5021044;28;20062;-64
2021/06/17 11:53:52;;;;;;;;;;;35.00;33.70;;;;;;5022640;28;19917;-66
2021/06/17 11:56:28;;;;;;;;;;;35.50;31.50;;;;;;5022606;28;19917;-64
2021/06/17 11:58:54;;;;;;;;;;;35.60;32.70;;;;;;5022693;28;19914;-64
2021/06/17 12:01:20;;;;;;;;;;;36.40;31.10;;;;;;5017187;28;20032;-64
2021/06/17 12:03:56;;;;;;;;;;;36.50;31.50;;;;;;4992314;28;20372;-65
2021/06/17 12:06:22;;;;;;;;;;;36.70;31.20;;;;;;5012482;28;20566;-65
2021/06/17 12:09:00;;;;;;;;;;;36.40;31.70;;;;;;5017464;28;20019;-65
2021/06/17 12:11:27;;;;;;;;;;;36.90;30.40;;;;;;5015811;28;19985;-65
2021/06/17 12:13:54;;;;;;;;;;;37.00;28.70;;;;;;5015274;28;20142;-66
2021/06/17 12:16:20;;;;;;;;;;;36.10;29.80;;;;;;5022595;28;19926;-65
2021/06/17 12:18:45;;;;;;;;;;;35.90;31.60;;;;;;5012782;28;20217;-65
2021/06/17 12:21:20;;;;;;;;;;;36.50;30.60;;;;;;5011036;28;19932;-64
2021/06/17 12:23:45;;;;;;;;;;;36.60;31.60;;;;;;5014415;28;19937;-64
2021/06/17 12:26:12;;;;;;;;;;;36.40;30.50;;;;;;5016950;28;19943;-64
2021/06/17 12:28:50;;;;;;;;;;;36.60;30.00;;;;;;5015356;28;19913;-63
2021/06/17 12:31:26;;;;;;;;;;;37.00;28.90;;;;;;5014405;28;19921;-63
2021/06/17 12:34:02;;;;;;;;;;;37.00;28.60;;;;;;5013056;28;20021;-64
2021/06/17 12:36:28;;;;;;;;;;;37.40;28.70;;;;;;5015047;28;19914;-64
2021/06/17 12:38:53;;;;;;;;;;;37.40;30.00;;;;;;5012438;28;19940;-65
2021/06/17 12:41:21;;;;;;;;;;;37.50;28.90;;;;;;5012794;28;19913;-65
2021/06/17 12:43:49;;;;;;;;;;;37.30;27.50;;;;;;5015733;28;20390;-65
2021/06/17 12:46:16;;;;;;;;;;;37.60;26.60;;;;;;5018614;28;19921;-65
2021/06/17 12:54:23;;;;;;;;;;;37.30;28.70;;;;;;5015971;28;19971;-65
2021/06/17 12:56:50;;;;;;;;;;;37.10;28.80;;;;;;5015712;28;19995;-66
2021/06/17 12:59:16;;;;;;;;;;;38.10;26.90;;;;;;5009412;28;19921;-66
2021/06/17 13:01:45;;;;;;;;;;;39.10;25.80;;;;;;5011009;28;20869;-64
2021/06/17 13:04:15;;;;;;;;;;;38.70;27.80;;;;;;5010480;28;19917;-67
2021/06/17 13:06:40;;;;;;;;;;;38.40;28.30;;;;;;5014186;28;20329;-65
2021/06/17 13:09:18;;;;;;;;;;;38.30;27.80;;;;;;5011834;28;20013;-65
2021/06/17 13:11:44;;;;;;;;;;;38.70;24.60;;;;;;5011614;28;20422;-65
2021/06/17 13:14:09;;;;;;;;;;;38.40;26.50;;;;;;5010782;28;19963;-65
2021/06/17 13:16:35;;;;;;;;;;;38.90;24.40;;;;;;5008324;28;20291;-66
2021/06/17 13:19:10;;;;;;;;;;;39.40;25.30;;;;;;5013667;28;19991;-66
2021/06/17 13:21:37;;;;;;;;;;;39.10;22.90;;;;;;5006372;28;20016;-66
2021/06/17 13:24:14;;;;;;;;;;;39.20;22.40;;;;;;5015381;28;20024;-66
2021/06/17 13:26:40;;;;;;;;;;;38.40;23.00;;;;;;5022127;28;19914;-66
2021/06/17 13:29:09;;;;;;;;;;;38.60;24.50;;;;;;5019172;28;19928;-65
2021/06/17 13:31:34;;;;;;;;;;;38.90;25.00;;;;;;5020480;28;19913;-65
2021/06/17 13:34:04;;;;;;;;;;;39.10;23.80;;;;;;5011275;28;19921;-66
2021/06/17 13:36:30;;;;;;;;;;;38.90;25.70;;;;;;5010444;28;20097;-66
2021/06/17 13:38:56;;;;;;;;;;;39.10;23.30;;;;;;5012836;28;20526;-64
2021/06/17 13:41:21;;;;;;;;;;;38.90;23.10;;;;;;5014186;28;20307;-64
2021/06/17 13:43:47;;;;;;;;;;;39.40;22.90;;;;;;5017834;28;19913;-65
2021/06/17 13:46:13;;;;;;;;;;;39.30;23.10;;;;;;5021251;28;19991;-65
2021/06/17 13:48:39;;;;;;;;;;;39.60;22.60;;;;;;5015082;28;19917;-66
2021/06/17 13:51:05;;;;;;;;;;;40.10;23.50;;;;;;5020366;28;19963;-66
2021/06/17 13:53:30;;;;;;;;;;;40.30;21.40;;;;;;5018220;28;20000;-66
2021/06/17 13:55:55;;;;;;;;;;;40.40;21.00;;;;;;5017686;28;19971;-66
2021/06/17 13:58:21;;;;;;;;;;;40.00;21.60;;;;;;5014507;28;19928;-63
2021/06/17 14:00:46;;;;;;;;;;;38.40;23.80;;;;;;5016562;28;19986;-66
2021/06/17 14:03:12;;;;;;;;;;;37.60;25.20;;;;;;5015555;28;20272;-64
2021/06/17 14:05:38;;;;;;;;;;;38.40;23.30;;;;;;5018515;28;20070;-65
2021/06/17 14:08:04;;;;;;;;;;;38.10;24.80;;;;;;5018446;28;19917;-65
2021/06/17 14:10:31;;;;;;;;;;;38.50;24.30;;;;;;5014892;28;21104;-66
2021/06/17 14:12:58;;;;;;;;;;;38.40;21.60;;;;;;5015626;28;20063;-66
2021/06/17 14:15:24;;;;;;;;;;;38.60;22.60;;;;;;5010624;28;19921;-65
2021/06/17 14:17:49;;;;;;;;;;;38.40;22.40;;;;;;5018079;28;19913;-66
2021/06/17 14:20:15;;;;;;;;;;;39.10;22.60;;;;;;5014416;28;19967;-66
2021/06/17 14:22:41;;;;;;;;;;;39.40;22.20;;;;;;5010340;28;20012;-66
2021/06/17 14:25:08;;;;;;;;;;;39.10;22.30;;;;;;5018353;28;19967;-65
2021/06/17 14:27:33;;;;;;;;;;;38.40;23.20;;;;;;5011973;28;20373;-66